Aeroporto :
LOGIN :

Iscrizione | Disclaimer

   EN    FR    IT 

 










Sommario :    VFR   VFR Marginale   IFR   IFR Intensivo   IFR Molto Intensivo
Visibilità : 
Base nubi : 
>= 8 km
>= 3000ft
5 / 8 km
1000 / 3000 ft
1500m / 5 km
500 / 1000 ft
800 / 1500m
200 / 500 ft
< 800m
< 200 ft
Simboli :   Temporali  Nebbia  Neve Forte  Precipitazioni Forti  Vento > 20 kt
SIGMETs :   Varie  Temporali  Ghiacco  Turbolenza  Onda orograficha  Ceneri Vulcaniche






- Altitudine del aeroporto : 1686 ft
- Codice IATA : MUW


DAOV - Ghriss

ULTIMO METAR :
  • 021600Z 35015KT 9999 FEW026TCU BKN026 15/06 Q1011

METARs OBSOLETI :
  • 021500Z 34014KT 9999 FEW026TCU BKN026 17/04 Q1010
  • 021400Z 30010G21KT 270V340 9999 FEW026TCU BKN026 18/03 Q1010

TAF TAF DAOV
Valido dal 02 a 15 ore il 03 a 00 ore UTC


021400Z 0215/0224 33014KT 8000 SCT026 SCT100
PROB40
TEMPO 0215/0221 30010G20KT 5000 -TSRA FEW020CB BKN026



MetMap, La meteo Aeronautica in un colpo d'occhio ! - Copyright ORBIFLY Dicembre 2007 - Disclaimer

ORBIFLY MET'MAP TEAM :

Programmazione e sviluppo : Alexandra Zaïnal
Concezione : Baudouin d'Aumeries
Aiuto per la programmazione : Marc-Olivier Méhu
Supporto tecnico e logistico : Manuel Goepfert
Aiuto per la traduzione : Arnaldo La Scala

Contatto : metmap@orbifly.com




FONTI E CREDITI :

   NOAA